Terminal Aerodrome Forecast
Issued by NWS Shreveport, LA

Home | Current Version | Previous Version | Text Only | Print | Product List | Glossary On
Versions: 1 2 3 4 5 6 7 8 9 10 11 12 13 14 15 16 17 18
000
FTUS44 KSHV 302342
TAFGGG
TAF
KGGG 302342Z 0100/0124 28006KT P6SM SCT050 SCT250
     FM010300 35004KT P6SM FEW250
      TEMPO 0109/0113 3SM BR
     FM011300 07007KT P6SM SCT040=

USA.gov is the U.S. government's official web portal to all federal, state and local government web resources and services.